sensor_id;sensor_type;location;lat;lon;timestamp;temperature;humidity
41876;DHT22;27555;50.808;4.402;2022-12-28T00:02:06;9.00;99.90
41876;DHT22;27555;50.808;4.402;2022-12-28T00:04:32;8.90;99.90
41876;DHT22;27555;50.808;4.402;2022-12-28T00:06:57;8.80;99.90
41876;DHT22;27555;50.808;4.402;2022-12-28T00:09:24;8.70;99.90
41876;DHT22;27555;50.808;4.402;2022-12-28T00:11:49;8.70;99.90
41876;DHT22;27555;50.808;4.402;2022-12-28T00:14:15;8.70;99.90
41876;DHT22;27555;50.808;4.402;2022-12-28T00:16:41;8.90;99.90
41876;DHT22;27555;50.808;4.402;2022-12-28T00:19:12;8.90;99.90
41876;DHT22;27555;50.808;4.402;2022-12-28T00:21:38;8.90;99.90
41876;DHT22;27555;50.808;4.402;2022-12-28T00:24:04;8.80;99.90
41876;DHT22;27555;50.808;4.402;2022-12-28T00:26:32;8.80;99.90
41876;DHT22;27555;50.808;4.402;2022-12-28T00:28:59;8.70;99.90
41876;DHT22;27555;50.808;4.402;2022-12-28T00:31:26;8.60;99.90
41876;DHT22;27555;50.808;4.402;2022-12-28T00:33:52;8.90;99.90
41876;DHT22;27555;50.808;4.402;2022-12-28T00:36:17;9.00;99.90
41876;DHT22;27555;50.808;4.402;2022-12-28T00:38:43;8.90;99.90
41876;DHT22;27555;50.808;4.402;2022-12-28T00:41:10;8.90;99.90
41876;DHT22;27555;50.808;4.402;2022-12-28T00:43:36;8.90;99.90
41876;DHT22;27555;50.808;4.402;2022-12-28T00:46:02;9.00;99.90
41876;DHT22;27555;50.808;4.402;2022-12-28T00:48:28;8.90;99.90
41876;DHT22;27555;50.808;4.402;2022-12-28T00:51:14;8.90;99.90
41876;DHT22;27555;50.808;4.402;2022-12-28T00:53:41;9.00;99.90
41876;DHT22;27555;50.808;4.402;2022-12-28T00:56:17;8.90;99.90
41876;DHT22;27555;50.808;4.402;2022-12-28T00:58:44;8.90;99.90
41876;DHT22;27555;50.808;4.402;2022-12-28T01:01:12;9.00;99.90
41876;DHT22;27555;50.808;4.402;2022-12-28T01:03:38;9.00;99.90
41876;DHT22;27555;50.808;4.402;2022-12-28T01:06:05;9.00;99.90
41876;DHT22;27555;50.808;4.402;2022-12-28T01:08:31;8.80;99.90
41876;DHT22;27555;50.808;4.402;2022-12-28T01:10:57;8.80;99.90
41876;DHT22;27555;50.808;4.402;2022-12-28T01:13:23;8.60;99.90
41876;DHT22;27555;50.808;4.402;2022-12-28T01:15:48;8.60;99.90
41876;DHT22;27555;50.808;4.402;2022-12-28T01:18:14;8.60;99.90
41876;DHT22;27555;50.808;4.402;2022-12-28T01:20:40;8.90;99.90
41876;DHT22;27555;50.808;4.402;2022-12-28T01:23:06;9.00;99.90
41876;DHT22;27555;50.808;4.402;2022-12-28T01:25:32;9.10;99.90
41876;DHT22;27555;50.808;4.402;2022-12-28T01:27:58;9.00;99.90
41876;DHT22;27555;50.808;4.402;2022-12-28T01:30:25;9.20;99.90
41876;DHT22;27555;50.808;4.402;2022-12-28T01:32:50;9.20;99.90
41876;DHT22;27555;50.808;4.402;2022-12-28T01:35:16;9.20;99.90
41876;DHT22;27555;50.808;4.402;2022-12-28T01:37:42;9.30;99.90
41876;DHT22;27555;50.808;4.402;2022-12-28T01:40:08;9.20;99.90
41876;DHT22;27555;50.808;4.402;2022-12-28T01:42:37;9.30;99.90
41876;DHT22;27555;50.808;4.402;2022-12-28T01:45:21;9.20;99.90
41876;DHT22;27555;50.808;4.402;2022-12-28T01:47:48;9.30;99.90
41876;DHT22;27555;50.808;4.402;2022-12-28T01:50:18;9.20;99.90
41876;DHT22;27555;50.808;4.402;2022-12-28T01:52:58;9.30;99.90
41876;DHT22;27555;50.808;4.402;2022-12-28T01:55:28;9.20;99.90
41876;DHT22;27555;50.808;4.402;2022-12-28T01:58:08;9.20;99.90
41876;DHT22;27555;50.808;4.402;2022-12-28T02:00:35;9.40;99.90
41876;DHT22;27555;50.808;4.402;2022-12-28T02:03:10;9.50;99.90
41876;DHT22;27555;50.808;4.402;2022-12-28T02:05:46;9.30;99.90
41876;DHT22;27555;50.808;4.402;2022-12-28T02:11:00;9.10;99.90
41876;DHT22;27555;50.808;4.402;2022-12-28T02:13:26;9.30;99.90
41876;DHT22;27555;50.808;4.402;2022-12-28T02:15:52;9.20;99.90
41876;DHT22;27555;50.808;4.402;2022-12-28T02:18:18;9.30;99.90
41876;DHT22;27555;50.808;4.402;2022-12-28T02:23:36;9.20;99.90
41876;DHT22;27555;50.808;4.402;2022-12-28T02:29:20;9.30;99.90
41876;DHT22;27555;50.808;4.402;2022-12-28T02:35:04;9.90;99.90
41876;DHT22;27555;50.808;4.402;2022-12-28T02:37:47;9.50;99.90
41876;DHT22;27555;50.808;4.402;2022-12-28T02:43:07;9.40;99.90
41876;DHT22;27555;50.808;4.402;2022-12-28T02:45:44;9.50;99.90
41876;DHT22;27555;50.808;4.402;2022-12-28T02:48:42;9.60;99.90
41876;DHT22;27555;50.808;4.402;2022-12-28T02:51:55;9.60;99.90
41876;DHT22;27555;50.808;4.402;2022-12-28T03:00:07;9.50;99.90
41876;DHT22;27555;50.808;4.402;2022-12-28T03:03:06;9.50;99.90
41876;DHT22;27555;50.808;4.402;2022-12-28T03:11:17;9.50;99.90
41876;DHT22;27555;50.808;4.402;2022-12-28T03:14:05;9.40;99.90
41876;DHT22;27555;50.808;4.402;2022-12-28T03:16:34;9.30;99.90
41876;DHT22;27555;50.808;4.402;2022-12-28T03:19:20;9.30;99.90
41876;DHT22;27555;50.808;4.402;2022-12-28T03:22:07;9.30;99.90
41876;DHT22;27555;50.808;4.402;2022-12-28T03:24:53;9.40;99.90
41876;DHT22;27555;50.808;4.402;2022-12-28T03:27:39;9.50;99.90
41876;DHT22;27555;50.808;4.402;2022-12-28T03:30:24;9.80;99.90
41876;DHT22;27555;50.808;4.402;2022-12-28T03:33:09;9.80;99.90
41876;DHT22;27555;50.808;4.402;2022-12-28T03:35:56;9.70;99.90
41876;DHT22;27555;50.808;4.402;2022-12-28T03:38:40;9.80;99.90
41876;DHT22;27555;50.808;4.402;2022-12-28T03:41:09;9.60;99.90
41876;DHT22;27555;50.808;4.402;2022-12-28T03:43:45;9.60;99.90
41876;DHT22;27555;50.808;4.402;2022-12-28T03:46:26;9.80;99.90
41876;DHT22;27555;50.808;4.402;2022-12-28T03:48:58;9.90;99.90
41876;DHT22;27555;50.808;4.402;2022-12-28T03:51:24;9.90;99.90
41876;DHT22;27555;50.808;4.402;2022-12-28T03:53:51;10.00;99.90
41876;DHT22;27555;50.808;4.402;2022-12-28T03:56:19;9.70;99.90
41876;DHT22;27555;50.808;4.402;2022-12-28T03:58:46;9.60;99.90
41876;DHT22;27555;50.808;4.402;2022-12-28T04:01:11;9.80;99.90
41876;DHT22;27555;50.808;4.402;2022-12-28T04:03:37;9.90;99.90
41876;DHT22;27555;50.808;4.402;2022-12-28T04:06:03;10.00;99.90
41876;DHT22;27555;50.808;4.402;2022-12-28T04:08:30;10.00;99.90
41876;DHT22;27555;50.808;4.402;2022-12-28T04:10:58;9.70;99.90
41876;DHT22;27555;50.808;4.402;2022-12-28T04:13:23;9.60;99.90
41876;DHT22;27555;50.808;4.402;2022-12-28T04:16:00;9.60;99.90
41876;DHT22;27555;50.808;4.402;2022-12-28T04:18:26;9.50;99.90
41876;DHT22;27555;50.808;4.402;2022-12-28T04:20:52;9.50;99.90
41876;DHT22;27555;50.808;4.402;2022-12-28T04:23:18;9.50;99.90
41876;DHT22;27555;50.808;4.402;2022-12-28T04:26:04;9.40;99.90
41876;DHT22;27555;50.808;4.402;2022-12-28T04:28:31;9.40;99.90
41876;DHT22;27555;50.808;4.402;2022-12-28T04:30:57;9.30;99.90
41876;DHT22;27555;50.808;4.402;2022-12-28T04:33:25;9.40;99.90
41876;DHT22;27555;50.808;4.402;2022-12-28T04:35:52;9.70;99.90
41876;DHT22;27555;50.808;4.402;2022-12-28T04:38:21;9.80;99.90
41876;DHT22;27555;50.808;4.402;2022-12-28T04:40:48;9.60;99.90
41876;DHT22;27555;50.808;4.402;2022-12-28T04:43:14;9.50;99.90
41876;DHT22;27555;50.808;4.402;2022-12-28T04:45:39;9.60;99.90
41876;DHT22;27555;50.808;4.402;2022-12-28T04:48:05;9.80;99.90
41876;DHT22;27555;50.808;4.402;2022-12-28T04:50:31;9.80;99.90
41876;DHT22;27555;50.808;4.402;2022-12-28T04:52:57;9.50;99.90
41876;DHT22;27555;50.808;4.402;2022-12-28T04:55:23;9.50;99.90
41876;DHT22;27555;50.808;4.402;2022-12-28T04:57:50;9.50;99.90
41876;DHT22;27555;50.808;4.402;2022-12-28T05:00:16;9.50;99.90
41876;DHT22;27555;50.808;4.402;2022-12-28T05:02:43;9.50;99.90
41876;DHT22;27555;50.808;4.402;2022-12-28T05:05:09;9.50;99.90
41876;DHT22;27555;50.808;4.402;2022-12-28T05:07:34;9.50;99.90
41876;DHT22;27555;50.808;4.402;2022-12-28T05:10:00;9.60;99.90
41876;DHT22;27555;50.808;4.402;2022-12-28T05:12:25;9.90;99.90
41876;DHT22;27555;50.808;4.402;2022-12-28T05:14:52;9.90;99.90
41876;DHT22;27555;50.808;4.402;2022-12-28T05:17:18;9.90;99.90
41876;DHT22;27555;50.808;4.402;2022-12-28T05:19:44;9.90;99.90
41876;DHT22;27555;50.808;4.402;2022-12-28T05:22:09;9.80;99.90
41876;DHT22;27555;50.808;4.402;2022-12-28T05:24:39;9.80;99.90
41876;DHT22;27555;50.808;4.402;2022-12-28T05:27:04;10.00;99.90
41876;DHT22;27555;50.808;4.402;2022-12-28T05:29:30;10.10;99.90
41876;DHT22;27555;50.808;4.402;2022-12-28T05:31:56;10.00;99.90
41876;DHT22;27555;50.808;4.402;2022-12-28T05:34:22;9.80;99.90
41876;DHT22;27555;50.808;4.402;2022-12-28T05:36:48;9.90;99.90
41876;DHT22;27555;50.808;4.402;2022-12-28T05:39:13;10.10;99.90
41876;DHT22;27555;50.808;4.402;2022-12-28T05:41:39;10.00;99.90
41876;DHT22;27555;50.808;4.402;2022-12-28T05:44:07;10.10;99.90
41876;DHT22;27555;50.808;4.402;2022-12-28T05:46:33;9.90;99.90
41876;DHT22;27555;50.808;4.402;2022-12-28T05:49:00;10.00;99.90
41876;DHT22;27555;50.808;4.402;2022-12-28T05:51:28;10.10;99.90
41876;DHT22;27555;50.808;4.402;2022-12-28T05:53:54;10.30;99.90
41876;DHT22;27555;50.808;4.402;2022-12-28T05:56:25;10.10;99.90
41876;DHT22;27555;50.808;4.402;2022-12-28T05:58:56;10.10;99.90
41876;DHT22;27555;50.808;4.402;2022-12-28T06:01:24;10.30;99.90
41876;DHT22;27555;50.808;4.402;2022-12-28T06:03:55;10.00;99.90
41876;DHT22;27555;50.808;4.402;2022-12-28T06:06:21;10.20;99.90
41876;DHT22;27555;50.808;4.402;2022-12-28T06:08:47;10.40;99.90
41876;DHT22;27555;50.808;4.402;2022-12-28T06:11:16;10.40;99.90
41876;DHT22;27555;50.808;4.402;2022-12-28T06:13:42;10.10;99.90
41876;DHT22;27555;50.808;4.402;2022-12-28T06:18:42;10.00;99.90
41876;DHT22;27555;50.808;4.402;2022-12-28T06:21:18;10.00;99.90
41876;DHT22;27555;50.808;4.402;2022-12-28T06:23:44;10.00;99.90
41876;DHT22;27555;50.808;4.402;2022-12-28T06:26:16;10.20;99.90
41876;DHT22;27555;50.808;4.402;2022-12-28T06:28:42;10.20;99.90
41876;DHT22;27555;50.808;4.402;2022-12-28T06:33:40;10.20;99.90
41876;DHT22;27555;50.808;4.402;2022-12-28T06:36:33;10.30;99.90
41876;DHT22;27555;50.808;4.402;2022-12-28T06:39:00;10.50;99.90
41876;DHT22;27555;50.808;4.402;2022-12-28T06:41:27;10.70;99.90
41876;DHT22;27555;50.808;4.402;2022-12-28T06:43:53;10.50;99.90
41876;DHT22;27555;50.808;4.402;2022-12-28T06:46:20;10.30;99.90
41876;DHT22;27555;50.808;4.402;2022-12-28T06:48:46;10.30;99.90
41876;DHT22;27555;50.808;4.402;2022-12-28T06:53:43;10.40;99.90
41876;DHT22;27555;50.808;4.402;2022-12-28T06:56:15;10.50;99.90
41876;DHT22;27555;50.808;4.402;2022-12-28T06:58:41;10.70;99.90
41876;DHT22;27555;50.808;4.402;2022-12-28T07:01:19;10.70;99.90
41876;DHT22;27555;50.808;4.402;2022-12-28T07:03:47;11.00;99.90
41876;DHT22;27555;50.808;4.402;2022-12-28T07:06:14;10.90;99.90
41876;DHT22;27555;50.808;4.402;2022-12-28T07:08:40;10.80;99.90
41876;DHT22;27555;50.808;4.402;2022-12-28T07:11:15;10.80;99.90
41876;DHT22;27555;50.808;4.402;2022-12-28T07:13:41;10.70;99.90
41876;DHT22;27555;50.808;4.402;2022-12-28T07:16:11;10.80;99.90
41876;DHT22;27555;50.808;4.402;2022-12-28T07:18:37;10.90;99.90
41876;DHT22;27555;50.808;4.402;2022-12-28T07:21:13;11.00;99.90
41876;DHT22;27555;50.808;4.402;2022-12-28T07:23:38;10.90;99.90
41876;DHT22;27555;50.808;4.402;2022-12-28T07:26:13;10.90;99.90
41876;DHT22;27555;50.808;4.402;2022-12-28T07:28:41;11.00;99.90
41876;DHT22;27555;50.808;4.402;2022-12-28T07:31:09;11.00;99.90
41876;DHT22;27555;50.808;4.402;2022-12-28T07:33:36;10.70;99.90
41876;DHT22;27555;50.808;4.402;2022-12-28T07:36:03;10.40;99.90
41876;DHT22;27555;50.808;4.402;2022-12-28T07:38:29;10.40;99.90
41876;DHT22;27555;50.808;4.402;2022-12-28T07:41:06;10.50;99.90
41876;DHT22;27555;50.808;4.402;2022-12-28T07:43:34;10.50;99.90
41876;DHT22;27555;50.808;4.402;2022-12-28T07:46:01;10.70;99.90
41876;DHT22;27555;50.808;4.402;2022-12-28T07:48:29;10.50;99.90
41876;DHT22;27555;50.808;4.402;2022-12-28T07:50:55;10.40;99.90
41876;DHT22;27555;50.808;4.402;2022-12-28T07:53:21;10.40;99.90
41876;DHT22;27555;50.808;4.402;2022-12-28T07:55:56;10.40;99.90
41876;DHT22;27555;50.808;4.402;2022-12-28T07:58:22;10.40;99.90
41876;DHT22;27555;50.808;4.402;2022-12-28T08:00:48;10.20;99.90
41876;DHT22;27555;50.808;4.402;2022-12-28T08:03:15;10.10;99.90
41876;DHT22;27555;50.808;4.402;2022-12-28T08:05:40;10.20;99.90
41876;DHT22;27555;50.808;4.402;2022-12-28T08:08:06;10.30;99.90
41876;DHT22;27555;50.808;4.402;2022-12-28T08:10:32;10.30;99.90
41876;DHT22;27555;50.808;4.402;2022-12-28T08:13:01;10.20;99.90
41876;DHT22;27555;50.808;4.402;2022-12-28T08:15:27;10.30;99.90
41876;DHT22;27555;50.808;4.402;2022-12-28T08:17:54;10.20;99.90
41876;DHT22;27555;50.808;4.402;2022-12-28T08:20:20;10.20;99.90
41876;DHT22;27555;50.808;4.402;2022-12-28T08:22:46;10.20;99.90
41876;DHT22;27555;50.808;4.402;2022-12-28T08:25:11;10.20;99.90
41876;DHT22;27555;50.808;4.402;2022-12-28T08:27:37;10.00;99.90
41876;DHT22;27555;50.808;4.402;2022-12-28T08:30:05;10.00;99.90
41876;DHT22;27555;50.808;4.402;2022-12-28T08:32:30;10.10;99.90
41876;DHT22;27555;50.808;4.402;2022-12-28T08:34:56;10.10;99.90
41876;DHT22;27555;50.808;4.402;2022-12-28T08:37:22;10.20;99.90
41876;DHT22;27555;50.808;4.402;2022-12-28T08:39:47;10.20;99.90
41876;DHT22;27555;50.808;4.402;2022-12-28T08:42:13;10.30;99.90
41876;DHT22;27555;50.808;4.402;2022-12-28T08:44:38;10.40;99.90
41876;DHT22;27555;50.808;4.402;2022-12-28T08:47:04;10.30;99.90
41876;DHT22;27555;50.808;4.402;2022-12-28T08:49:29;10.40;99.90
41876;DHT22;27555;50.808;4.402;2022-12-28T08:51:55;10.30;99.90
41876;DHT22;27555;50.808;4.402;2022-12-28T08:54:21;10.30;99.90
41876;DHT22;27555;50.808;4.402;2022-12-28T08:56:46;10.30;99.90
41876;DHT22;27555;50.808;4.402;2022-12-28T08:59:14;10.30;99.90
41876;DHT22;27555;50.808;4.402;2022-12-28T09:01:40;10.50;99.90
41876;DHT22;27555;50.808;4.402;2022-12-28T09:04:06;10.40;99.90
41876;DHT22;27555;50.808;4.402;2022-12-28T09:06:36;10.20;99.90
41876;DHT22;27555;50.808;4.402;2022-12-28T09:09:04;10.20;99.90
41876;DHT22;27555;50.808;4.402;2022-12-28T09:11:31;10.30;99.90
41876;DHT22;27555;50.808;4.402;2022-12-28T09:13:57;10.50;99.90
41876;DHT22;27555;50.808;4.402;2022-12-28T09:16:26;10.50;99.90
41876;DHT22;27555;50.808;4.402;2022-12-28T09:18:54;10.50;99.90
41876;DHT22;27555;50.808;4.402;2022-12-28T09:21:21;10.60;99.90
41876;DHT22;27555;50.808;4.402;2022-12-28T09:23:47;10.50;99.90
41876;DHT22;27555;50.808;4.402;2022-12-28T09:26:16;10.50;99.90
41876;DHT22;27555;50.808;4.402;2022-12-28T09:28:53;10.50;99.90
41876;DHT22;27555;50.808;4.402;2022-12-28T09:31:20;10.60;99.90
41876;DHT22;27555;50.808;4.402;2022-12-28T09:33:46;10.40;99.90
41876;DHT22;27555;50.808;4.402;2022-12-28T09:36:26;10.30;99.90
41876;DHT22;27555;50.808;4.402;2022-12-28T09:38:52;10.50;99.90
41876;DHT22;27555;50.808;4.402;2022-12-28T09:46:39;10.40;99.90
41876;DHT22;27555;50.808;4.402;2022-12-28T09:49:13;10.50;99.90
41876;DHT22;27555;50.808;4.402;2022-12-28T09:51:53;10.60;99.90
41876;DHT22;27555;50.808;4.402;2022-12-28T09:54:20;10.70;99.90
41876;DHT22;27555;50.808;4.402;2022-12-28T09:56:47;10.60;99.90
41876;DHT22;27555;50.808;4.402;2022-12-28T09:59:18;10.70;99.90
41876;DHT22;27555;50.808;4.402;2022-12-28T10:01:49;10.60;99.90
41876;DHT22;27555;50.808;4.402;2022-12-28T10:04:16;10.50;99.90
41876;DHT22;27555;50.808;4.402;2022-12-28T10:06:42;10.50;99.90
41876;DHT22;27555;50.808;4.402;2022-12-28T10:09:13;10.60;99.90
41876;DHT22;27555;50.808;4.402;2022-12-28T10:11:42;10.60;99.90
41876;DHT22;27555;50.808;4.402;2022-12-28T10:14:29;10.80;99.90
41876;DHT22;27555;50.808;4.402;2022-12-28T10:16:58;10.90;99.90
41876;DHT22;27555;50.808;4.402;2022-12-28T10:19:26;10.60;99.90
41876;DHT22;27555;50.808;4.402;2022-12-28T10:22:03;10.70;99.90
41876;DHT22;27555;50.808;4.402;2022-12-28T10:24:30;10.70;99.90
41876;DHT22;27555;50.808;4.402;2022-12-28T10:26:58;10.60;99.90
41876;DHT22;27555;50.808;4.402;2022-12-28T10:29:24;10.60;99.90
41876;DHT22;27555;50.808;4.402;2022-12-28T10:32:07;10.70;99.90
41876;DHT22;27555;50.808;4.402;2022-12-28T10:37:19;10.60;99.90
41876;DHT22;27555;50.808;4.402;2022-12-28T10:39:49;10.60;99.90
41876;DHT22;27555;50.808;4.402;2022-12-28T10:42:31;10.70;99.90
41876;DHT22;27555;50.808;4.402;2022-12-28T10:45:06;10.80;99.90
41876;DHT22;27555;50.808;4.402;2022-12-28T10:47:34;10.60;99.90
41876;DHT22;27555;50.808;4.402;2022-12-28T10:50:02;10.80;99.90
41876;DHT22;27555;50.808;4.402;2022-12-28T10:52:27;10.90;99.90
41876;DHT22;27555;50.808;4.402;2022-12-28T10:54:53;10.90;99.90
41876;DHT22;27555;50.808;4.402;2022-12-28T10:57:30;11.00;99.90
41876;DHT22;27555;50.808;4.402;2022-12-28T11:00:18;11.00;99.90
41876;DHT22;27555;50.808;4.402;2022-12-28T11:02:44;10.90;99.90
41876;DHT22;27555;50.808;4.402;2022-12-28T11:05:18;10.90;99.90
41876;DHT22;27555;50.808;4.402;2022-12-28T11:07:44;11.10;99.90
41876;DHT22;27555;50.808;4.402;2022-12-28T11:10:26;11.30;99.90
41876;DHT22;27555;50.808;4.402;2022-12-28T11:12:57;11.30;99.90
41876;DHT22;27555;50.808;4.402;2022-12-28T11:15:32;11.20;99.90
41876;DHT22;27555;50.808;4.402;2022-12-28T11:20:42;11.30;99.90
41876;DHT22;27555;50.808;4.402;2022-12-28T11:23:17;11.20;99.90
41876;DHT22;27555;50.808;4.402;2022-12-28T11:25:43;11.20;99.90
41876;DHT22;27555;50.808;4.402;2022-12-28T11:28:15;11.20;99.90
41876;DHT22;27555;50.808;4.402;2022-12-28T11:30:43;11.20;99.90
41876;DHT22;27555;50.808;4.402;2022-12-28T11:33:34;11.40;99.90
41876;DHT22;27555;50.808;4.402;2022-12-28T11:36:03;11.20;99.90
41876;DHT22;27555;50.808;4.402;2022-12-28T11:38:55;11.30;99.90
41876;DHT22;27555;50.808;4.402;2022-12-28T11:43:59;11.10;99.90
41876;DHT22;27555;50.808;4.402;2022-12-28T11:51:33;11.10;99.90
41876;DHT22;27555;50.808;4.402;2022-12-28T11:54:34;11.20;99.90
41876;DHT22;27555;50.808;4.402;2022-12-28T11:57:00;11.30;99.90
41876;DHT22;27555;50.808;4.402;2022-12-28T11:59:28;11.40;99.90
41876;DHT22;27555;50.808;4.402;2022-12-28T12:04:42;11.50;99.90
41876;DHT22;27555;50.808;4.402;2022-12-28T12:07:22;11.30;99.90
41876;DHT22;27555;50.808;4.402;2022-12-28T12:10:13;11.30;99.90
41876;DHT22;27555;50.808;4.402;2022-12-28T12:12:47;11.20;99.90
41876;DHT22;27555;50.808;4.402;2022-12-28T12:15:17;11.20;99.90
41876;DHT22;27555;50.808;4.402;2022-12-28T12:17:58;11.10;99.90
41876;DHT22;27555;50.808;4.402;2022-12-28T12:25:45;11.30;99.90
41876;DHT22;27555;50.808;4.402;2022-12-28T12:28:36;11.40;99.90
41876;DHT22;27555;50.808;4.402;2022-12-28T12:31:06;11.40;99.90
41876;DHT22;27555;50.808;4.402;2022-12-28T12:33:35;11.40;99.90
41876;DHT22;27555;50.808;4.402;2022-12-28T12:39:08;11.40;99.90
41876;DHT22;27555;50.808;4.402;2022-12-28T12:42:03;11.20;99.90
41876;DHT22;27555;50.808;4.402;2022-12-28T13:00:17;11.60;99.90
41876;DHT22;27555;50.808;4.402;2022-12-28T13:05:29;11.50;99.90
41876;DHT22;27555;50.808;4.402;2022-12-28T13:07:56;11.50;99.90
41876;DHT22;27555;50.808;4.402;2022-12-28T13:10:36;11.60;99.90
41876;DHT22;27555;50.808;4.402;2022-12-28T13:13:05;11.60;99.90
41876;DHT22;27555;50.808;4.402;2022-12-28T13:15:31;11.80;99.90
41876;DHT22;27555;50.808;4.402;2022-12-28T13:18:02;11.70;99.90
41876;DHT22;27555;50.808;4.402;2022-12-28T13:20:28;11.80;99.90
41876;DHT22;27555;50.808;4.402;2022-12-28T13:22:54;11.80;99.90
41876;DHT22;27555;50.808;4.402;2022-12-28T13:25:31;11.60;99.90
41876;DHT22;27555;50.808;4.402;2022-12-28T13:28:02;11.70;99.90
41876;DHT22;27555;50.808;4.402;2022-12-28T13:30:28;11.70;99.90
41876;DHT22;27555;50.808;4.402;2022-12-28T13:32:58;11.70;99.90
41876;DHT22;27555;50.808;4.402;2022-12-28T13:35:30;11.80;99.90
41876;DHT22;27555;50.808;4.402;2022-12-28T13:40:34;12.10;99.90
41876;DHT22;27555;50.808;4.402;2022-12-28T13:45:55;11.90;99.90
41876;DHT22;27555;50.808;4.402;2022-12-28T13:48:22;11.70;99.90
41876;DHT22;27555;50.808;4.402;2022-12-28T13:50:48;11.90;99.90
41876;DHT22;27555;50.808;4.402;2022-12-28T13:53:22;11.80;99.90
41876;DHT22;27555;50.808;4.402;2022-12-28T13:55:59;11.80;99.90
41876;DHT22;27555;50.808;4.402;2022-12-28T13:58:38;11.90;99.90
41876;DHT22;27555;50.808;4.402;2022-12-28T14:01:09;11.90;99.90
41876;DHT22;27555;50.808;4.402;2022-12-28T14:03:40;11.90;99.90
41876;DHT22;27555;50.808;4.402;2022-12-28T14:06:07;12.10;99.90
41876;DHT22;27555;50.808;4.402;2022-12-28T14:08:35;12.10;99.90
41876;DHT22;27555;50.808;4.402;2022-12-28T14:11:03;12.10;99.90
41876;DHT22;27555;50.808;4.402;2022-12-28T14:13:33;11.90;99.90
41876;DHT22;27555;50.808;4.402;2022-12-28T14:16:00;12.00;99.90
41876;DHT22;27555;50.808;4.402;2022-12-28T14:18:27;12.00;99.90
41876;DHT22;27555;50.808;4.402;2022-12-28T14:20:55;12.00;99.90
41876;DHT22;27555;50.808;4.402;2022-12-28T14:23:29;12.00;99.90
41876;DHT22;27555;50.808;4.402;2022-12-28T14:26:04;11.90;99.90
41876;DHT22;27555;50.808;4.402;2022-12-28T14:28:44;11.80;99.90
41876;DHT22;27555;50.808;4.402;2022-12-28T14:31:13;11.70;99.90
41876;DHT22;27555;50.808;4.402;2022-12-28T14:34:02;11.80;99.90
41876;DHT22;27555;50.808;4.402;2022-12-28T14:36:54;11.80;99.90
41876;DHT22;27555;50.808;4.402;2022-12-28T14:41:52;11.70;99.90
41876;DHT22;27555;50.808;4.402;2022-12-28T14:46:58;11.70;99.90
41876;DHT22;27555;50.808;4.402;2022-12-28T14:57:23;11.50;99.90
41876;DHT22;27555;50.808;4.402;2022-12-28T15:00:03;11.60;99.90
41876;DHT22;27555;50.808;4.402;2022-12-28T15:04:58;11.50;99.90
41876;DHT22;27555;50.808;4.402;2022-12-28T15:07:24;11.60;99.90
41876;DHT22;27555;50.808;4.402;2022-12-28T15:09:50;11.40;99.90
41876;DHT22;27555;50.808;4.402;2022-12-28T15:12:19;11.40;99.90
41876;DHT22;27555;50.808;4.402;2022-12-28T15:14:46;11.50;99.90
41876;DHT22;27555;50.808;4.402;2022-12-28T15:17:12;11.30;99.90
41876;DHT22;27555;50.808;4.402;2022-12-28T15:19:38;11.30;99.90
41876;DHT22;27555;50.808;4.402;2022-12-28T15:22:04;11.30;99.90
41876;DHT22;27555;50.808;4.402;2022-12-28T15:24:30;11.50;99.90
41876;DHT22;27555;50.808;4.402;2022-12-28T15:26:56;11.50;99.90
41876;DHT22;27555;50.808;4.402;2022-12-28T15:29:22;11.40;99.90
41876;DHT22;27555;50.808;4.402;2022-12-28T15:31:48;11.40;99.90
41876;DHT22;27555;50.808;4.402;2022-12-28T15:34:13;11.30;99.90
41876;DHT22;27555;50.808;4.402;2022-12-28T15:36:39;11.30;99.90
41876;DHT22;27555;50.808;4.402;2022-12-28T15:39:06;11.40;99.90
41876;DHT22;27555;50.808;4.402;2022-12-28T15:41:32;11.40;99.90
41876;DHT22;27555;50.808;4.402;2022-12-28T15:44:17;11.40;99.90
41876;DHT22;27555;50.808;4.402;2022-12-28T15:46:43;11.20;99.90
41876;DHT22;27555;50.808;4.402;2022-12-28T15:49:12;11.10;99.90
41876;DHT22;27555;50.808;4.402;2022-12-28T15:51:38;10.90;99.90
41876;DHT22;27555;50.808;4.402;2022-12-28T15:54:04;10.80;99.90
41876;DHT22;27555;50.808;4.402;2022-12-28T15:56:32;10.70;99.90
41876;DHT22;27555;50.808;4.402;2022-12-28T15:59:01;10.90;99.90
41876;DHT22;27555;50.808;4.402;2022-12-28T16:01:29;10.80;99.90
41876;DHT22;27555;50.808;4.402;2022-12-28T16:03:56;10.80;99.90
41876;DHT22;27555;50.808;4.402;2022-12-28T16:06:23;10.90;99.90
41876;DHT22;27555;50.808;4.402;2022-12-28T16:08:54;10.80;99.90
41876;DHT22;27555;50.808;4.402;2022-12-28T16:11:20;10.80;99.90
41876;DHT22;27555;50.808;4.402;2022-12-28T16:13:58;10.70;99.90
41876;DHT22;27555;50.808;4.402;2022-12-28T16:16:25;10.80;99.90
41876;DHT22;27555;50.808;4.402;2022-12-28T16:18:53;10.90;99.90
41876;DHT22;27555;50.808;4.402;2022-12-28T16:21:21;10.90;99.90
41876;DHT22;27555;50.808;4.402;2022-12-28T16:23:47;11.00;99.90
41876;DHT22;27555;50.808;4.402;2022-12-28T16:26:13;10.90;99.90
41876;DHT22;27555;50.808;4.402;2022-12-28T16:28:40;11.00;99.90
41876;DHT22;27555;50.808;4.402;2022-12-28T16:31:06;11.00;99.90
41876;DHT22;27555;50.808;4.402;2022-12-28T16:33:31;11.00;99.90
41876;DHT22;27555;50.808;4.402;2022-12-28T16:35:57;10.90;99.90
41876;DHT22;27555;50.808;4.402;2022-12-28T16:38:27;10.80;99.90
41876;DHT22;27555;50.808;4.402;2022-12-28T16:40:55;10.60;99.90
41876;DHT22;27555;50.808;4.402;2022-12-28T16:43:22;10.70;99.90
41876;DHT22;27555;50.808;4.402;2022-12-28T16:45:48;10.50;99.90
41876;DHT22;27555;50.808;4.402;2022-12-28T16:48:14;10.70;99.90
41876;DHT22;27555;50.808;4.402;2022-12-28T16:50:40;10.70;99.90
41876;DHT22;27555;50.808;4.402;2022-12-28T16:53:07;10.70;99.90
41876;DHT22;27555;50.808;4.402;2022-12-28T16:55:38;10.60;99.90
41876;DHT22;27555;50.808;4.402;2022-12-28T16:58:04;10.60;99.90
41876;DHT22;27555;50.808;4.402;2022-12-28T17:00:30;10.70;99.90
41876;DHT22;27555;50.808;4.402;2022-12-28T17:02:56;10.70;99.90
41876;DHT22;27555;50.808;4.402;2022-12-28T17:05:21;10.60;99.90
41876;DHT22;27555;50.808;4.402;2022-12-28T17:07:47;10.60;99.90
41876;DHT22;27555;50.808;4.402;2022-12-28T17:10:13;10.50;99.90
41876;DHT22;27555;50.808;4.402;2022-12-28T17:12:39;10.50;99.90
41876;DHT22;27555;50.808;4.402;2022-12-28T17:15:06;10.50;99.90
41876;DHT22;27555;50.808;4.402;2022-12-28T17:17:33;10.40;99.90
41876;DHT22;27555;50.808;4.402;2022-12-28T17:19:59;10.50;99.90
41876;DHT22;27555;50.808;4.402;2022-12-28T17:22:25;10.50;99.90
41876;DHT22;27555;50.808;4.402;2022-12-28T17:24:50;10.50;99.90
41876;DHT22;27555;50.808;4.402;2022-12-28T17:27:16;10.60;99.90
41876;DHT22;27555;50.808;4.402;2022-12-28T17:29:42;10.50;99.90
41876;DHT22;27555;50.808;4.402;2022-12-28T17:32:07;10.50;99.90
41876;DHT22;27555;50.808;4.402;2022-12-28T17:34:33;10.50;99.90